createdAt,value
2023-01-02T00:00:22.480Z,98.47
2023-01-02T00:02:49.179Z,97.75
2023-01-02T00:05:16.189Z,97.92
2023-01-02T00:07:42.805Z,96.66
2023-01-02T00:10:12.178Z,97.35
2023-01-02T00:12:43.524Z,97.75
2023-01-02T00:15:15.261Z,97.90
2023-01-02T00:17:44.180Z,97.56
2023-01-02T00:20:11.140Z,97.50
2023-01-02T00:22:37.696Z,96.84
2023-01-02T00:25:04.709Z,95.76
2023-01-02T00:27:31.411Z,95.90
2023-01-02T00:41:33.443Z,97.58
2023-01-02T00:44:00.029Z,98.13
2023-01-02T00:46:28.830Z,97.85
2023-01-02T00:48:57.930Z,98.07
2023-01-02T00:51:29.423Z,97.77
2023-01-02T00:53:56.077Z,96.92
2023-01-02T00:56:25.122Z,97.40
2023-01-02T00:58:54.162Z,97.59
2023-01-02T01:01:20.754Z,97.82
2023-01-02T01:03:49.826Z,98.06
2023-01-02T01:06:21.427Z,98.26
2023-01-02T01:08:48.188Z,98.74
2023-01-02T01:11:17.646Z,99.40
2023-01-02T01:13:44.814Z,99.19
2023-01-02T01:16:18.752Z,99.19
2023-01-02T01:18:46.910Z,99.14
2023-01-02T01:21:18.174Z,99.29
2023-01-02T01:23:45.303Z,99.26
2023-01-02T01:26:16.914Z,99.42
2023-01-02T01:28:43.537Z,99.75
2023-01-02T01:31:13.153Z,99.72
2023-01-02T01:33:41.994Z,99.89
2023-01-02T01:36:16.074Z,99.87
2023-01-02T01:38:43.531Z,99.40
2023-01-02T01:41:12.842Z,99.33
2023-01-02T01:43:57.105Z,99.88
2023-01-02T01:46:29.154Z,100.00
2023-01-02T01:49:04.360Z,99.79
2023-01-02T01:51:38.095Z,100.00
2023-01-02T01:54:12.236Z,99.86
2023-01-02T01:56:49.627Z,100.00
2023-01-02T01:59:17.350Z,100.00
2023-01-02T02:01:44.851Z,100.00
2023-01-02T02:04:12.255Z,100.00
2023-01-02T02:06:39.782Z,100.00
2023-01-02T02:09:37.393Z,99.98
2023-01-02T02:12:06.907Z,100.00
2023-01-02T02:14:34.550Z,99.76
2023-01-02T02:17:05.627Z,99.58
2023-01-02T02:19:44.407Z,99.56
2023-01-02T02:22:31.999Z,99.91
2023-01-02T02:25:18.740Z,99.64
2023-01-02T02:28:04.019Z,99.62
2023-01-02T02:30:36.725Z,99.22
2023-01-02T02:33:22.007Z,99.48
2023-01-02T02:36:25.389Z,99.12
2023-01-02T02:39:04.587Z,99.38
2023-01-02T02:42:04.005Z,99.62
2023-01-02T02:45:01.444Z,99.91
2023-01-02T02:47:48.631Z,99.82
2023-01-02T02:50:31.064Z,99.29
2023-01-02T02:53:06.619Z,99.71
2023-01-02T02:55:47.406Z,99.57
2023-01-02T02:58:18.162Z,100.00
2023-01-02T03:00:44.780Z,100.00
2023-01-02T03:03:19.438Z,100.00
2023-01-02T03:06:10.915Z,100.00
2023-01-02T03:09:23.999Z,100.00
2023-01-02T03:12:09.154Z,100.00
2023-01-02T03:15:07.081Z,100.00
2023-01-02T03:17:47.851Z,100.00
2023-01-02T03:20:19.457Z,100.00
2023-01-02T03:22:56.890Z,100.00
2023-01-02T03:25:23.706Z,100.00
2023-01-02T03:27:52.717Z,100.00
2023-01-02T03:30:23.693Z,100.00
2023-01-02T03:33:13.721Z,100.00
2023-01-02T03:35:53.355Z,100.00
2023-01-02T03:38:30.746Z,100.00
2023-01-02T03:41:12.300Z,100.00
2023-01-02T03:43:40.549Z,100.00
2023-01-02T03:46:16.108Z,100.00
2023-01-02T03:49:00.484Z,100.00
2023-01-02T03:51:27.246Z,100.00
2023-01-02T03:53:54.371Z,100.00
2023-01-02T03:56:42.172Z,100.00
2023-01-02T03:59:08.776Z,100.00
2023-01-02T04:01:52.330Z,100.00
2023-01-02T04:04:28.587Z,99.91
2023-01-02T04:07:03.370Z,100.00
2023-01-02T04:09:33.403Z,100.00
2023-01-02T04:12:05.540Z,99.91
2023-01-02T04:14:35.563Z,100.00
2023-01-02T04:17:08.352Z,100.00
2023-01-02T04:19:54.906Z,99.74
2023-01-02T04:22:29.303Z,100.00
2023-01-02T04:25:06.215Z,99.12
2023-01-02T04:27:43.097Z,99.11
2023-01-02T04:30:10.293Z,99.00
2023-01-02T04:32:44.725Z,98.80
2023-01-02T04:35:23.162Z,98.79
2023-01-02T04:37:50.018Z,98.42
2023-01-02T04:40:24.866Z,98.84
2023-01-02T04:42:51.773Z,98.63
2023-01-02T04:45:21.119Z,98.50
2023-01-02T04:47:50.691Z,98.63
2023-01-02T04:50:22.537Z,98.86
2023-01-02T04:52:51.321Z,99.18
2023-01-02T04:55:17.876Z,98.75
2023-01-02T04:57:44.580Z,98.65
2023-01-02T05:00:11.669Z,98.46
2023-01-02T05:02:40.639Z,98.14
2023-01-02T05:05:10.961Z,98.49
2023-01-02T05:07:38.136Z,98.06
2023-01-02T05:10:05.870Z,97.92
2023-01-02T05:12:36.841Z,97.50
2023-01-02T05:15:07.347Z,97.61
2023-01-02T05:17:35.505Z,97.46
2023-01-02T05:20:02.512Z,97.77
2023-01-02T05:22:47.632Z,98.33
2023-01-02T05:25:16.429Z,97.95
2023-01-02T05:27:43.354Z,97.58
2023-01-02T05:30:10.672Z,97.93
2023-01-02T05:32:37.294Z,97.62
2023-01-02T05:35:04.127Z,97.56
2023-01-02T05:37:33.036Z,97.40
2023-01-02T05:39:59.557Z,97.61
2023-01-02T05:42:26.176Z,97.97
2023-01-02T05:44:52.781Z,97.80
2023-01-02T05:47:24.676Z,97.68
2023-01-02T05:49:53.439Z,97.75
2023-01-02T05:52:20.027Z,97.99
2023-01-02T05:54:46.597Z,97.94
2023-01-02T05:57:13.199Z,98.26
2023-01-02T05:59:41.986Z,97.94
2023-01-02T06:02:08.676Z,98.31
2023-01-02T06:04:35.423Z,98.64
2023-01-02T06:07:02.032Z,98.60
2023-01-02T06:09:30.888Z,98.71
2023-01-02T06:18:25.520Z,98.51
2023-01-02T06:20:52.191Z,98.37
2023-01-02T06:23:21.240Z,98.76
2023-01-02T06:25:50.104Z,97.86
2023-01-02T06:28:16.740Z,97.95
2023-01-02T06:30:43.351Z,97.76
2023-01-02T06:33:09.940Z,97.58
2023-01-02T06:35:36.616Z,98.02
2023-01-02T06:38:05.757Z,98.47
2023-01-02T06:40:32.517Z,98.17
2023-01-02T06:43:00.361Z,98.01
2023-01-02T06:45:29.834Z,97.88
2023-01-02T06:48:00.484Z,97.57
2023-01-02T06:50:34.856Z,97.63
2023-01-02T06:53:02.167Z,97.74
2023-01-02T06:55:28.871Z,97.30
2023-01-02T06:57:55.453Z,97.74
2023-01-02T07:00:22.331Z,97.55
2023-01-02T07:02:49.074Z,96.92
2023-01-02T07:05:24.288Z,96.98
2023-01-02T07:07:51.268Z,96.74
2023-01-02T07:10:17.882Z,96.34
2023-01-02T07:12:47.502Z,96.36
2023-01-02T07:15:16.746Z,96.31
2023-01-02T07:17:43.363Z,96.63
2023-01-02T07:20:10.367Z,96.35
2023-01-02T07:22:37.003Z,95.79
2023-01-02T07:25:03.944Z,96.31
2023-01-02T07:27:33.131Z,96.69
2023-01-02T07:30:02.159Z,96.27
2023-01-02T07:32:28.985Z,96.48
2023-01-02T07:34:55.622Z,96.65
2023-01-02T07:37:26.720Z,96.72
2023-01-02T07:39:55.791Z,96.46
2023-01-02T07:42:25.301Z,96.33
2023-01-02T07:44:51.900Z,96.30
2023-01-02T07:47:18.522Z,96.76
2023-01-02T07:49:45.073Z,96.56
2023-01-02T07:52:16.878Z,96.44
2023-01-02T07:54:48.190Z,96.67
2023-01-02T07:57:14.834Z,96.20
2023-01-02T07:59:47.033Z,96.51
2023-01-02T08:02:16.109Z,96.66
2023-01-02T08:04:42.705Z,96.72
2023-01-02T08:07:09.960Z,96.50
2023-01-02T08:09:39.315Z,96.59
2023-01-02T08:12:05.969Z,96.60
2023-01-02T08:14:32.665Z,96.27
2023-01-02T08:17:01.762Z,96.21
2023-01-02T08:19:33.248Z,96.80
2023-01-02T08:21:59.913Z,96.26
2023-01-02T08:24:26.482Z,96.39
2023-01-02T08:26:55.551Z,96.63
2023-01-02T08:29:24.551Z,96.44
2023-01-02T08:31:51.151Z,96.66
2023-01-02T08:34:17.900Z,96.43
2023-01-02T08:36:46.925Z,96.30
2023-01-02T08:39:13.529Z,96.09
2023-01-02T08:41:42.948Z,95.74
2023-01-02T08:44:11.985Z,96.17
2023-01-02T08:46:42.519Z,96.15
2023-01-02T08:49:12.417Z,96.50
2023-01-02T08:51:39.029Z,96.40
2023-01-02T08:54:08.127Z,96.23
2023-01-02T08:56:36.009Z,96.30
2023-01-02T08:59:08.400Z,96.09
2023-01-02T09:01:38.143Z,96.02
2023-01-02T09:04:11.904Z,95.48
2023-01-02T09:06:43.178Z,95.38
2023-01-02T09:09:13.885Z,94.93
2023-01-02T09:11:52.983Z,94.94
2023-01-02T09:14:23.206Z,95.22
2023-01-02T09:16:51.058Z,94.90
2023-01-02T09:19:18.099Z,94.58
2023-01-02T09:21:45.559Z,94.61
2023-01-02T09:24:14.487Z,94.95
2023-01-02T09:26:46.335Z,95.06
2023-01-02T09:29:18.489Z,94.39
2023-01-02T09:31:45.095Z,93.84
2023-01-02T09:34:14.940Z,94.07
2023-01-02T09:36:41.603Z,93.85
2023-01-02T09:39:08.245Z,94.96
2023-01-02T09:41:39.040Z,94.40
2023-01-02T09:44:05.580Z,95.08
2023-01-02T09:46:55.257Z,94.89
2023-01-02T09:49:27.721Z,94.92
2023-01-02T09:51:54.376Z,95.63
2023-01-02T09:54:34.142Z,94.77
2023-01-02T09:57:27.397Z,94.61
2023-01-02T10:00:22.173Z,94.71
2023-01-02T10:03:08.651Z,94.79
2023-01-02T10:05:41.390Z,94.18
2023-01-02T10:08:32.828Z,93.75
2023-01-02T10:18:39.841Z,93.54
2023-01-02T10:21:15.519Z,93.61
2023-01-02T10:23:50.331Z,93.87
2023-01-02T10:26:19.231Z,93.21
2023-01-02T10:29:39.388Z,93.86
2023-01-02T10:32:12.820Z,93.22
2023-01-02T10:34:53.863Z,93.06
2023-01-02T10:37:20.986Z,93.48
2023-01-02T10:39:50.469Z,93.38
2023-01-02T10:42:17.259Z,92.52
2023-01-02T10:44:47.961Z,93.05
2023-01-02T10:47:37.924Z,92.18
2023-01-02T10:50:16.858Z,92.58
2023-01-02T10:52:53.182Z,92.04
2023-01-02T10:55:35.254Z,92.38
2023-01-02T10:58:04.185Z,93.29
2023-01-02T11:00:34.684Z,93.95
2023-01-02T11:03:06.818Z,93.65
2023-01-02T11:05:48.552Z,91.97
2023-01-02T11:08:18.161Z,91.83
2023-01-02T11:10:45.314Z,92.69
2023-01-02T11:13:17.928Z,92.02
2023-01-02T11:16:01.018Z,91.66
2023-01-02T11:18:35.614Z,91.36
2023-01-02T11:21:06.811Z,91.63
2023-01-02T11:23:43.187Z,91.39
2023-01-02T11:26:20.629Z,90.75
2023-01-02T11:28:50.938Z,90.21
2023-01-02T11:31:18.839Z,91.41
2023-01-02T11:33:46.462Z,89.87
2023-01-02T11:36:12.958Z,89.77
2023-01-02T11:38:49.965Z,89.25
2023-01-02T11:41:48.772Z,89.85
2023-01-02T11:44:32.178Z,90.24
2023-01-02T11:47:03.800Z,88.96
2023-01-02T11:49:57.923Z,87.96
2023-01-02T11:56:25.863Z,87.13
2023-01-02T11:59:22.028Z,87.46
2023-01-02T12:01:55.525Z,87.53
2023-01-02T12:04:27.832Z,86.69
2023-01-02T12:07:26.792Z,86.40
2023-01-02T12:10:14.972Z,86.92
2023-01-02T12:12:56.009Z,85.42
2023-01-02T12:15:35.003Z,85.75
2023-01-02T12:18:18.832Z,86.14
2023-01-02T12:20:54.344Z,85.89
2023-01-02T12:23:31.568Z,85.09
2023-01-02T12:26:09.446Z,84.91
2023-01-02T12:28:47.696Z,85.16
2023-01-02T12:31:29.786Z,86.24
2023-01-02T12:34:32.046Z,86.16
2023-01-02T12:37:17.902Z,85.39
2023-01-02T12:40:08.649Z,84.88
2023-01-02T12:43:06.536Z,85.05
2023-01-02T12:45:58.349Z,85.79
2023-01-02T12:48:46.458Z,84.89
2023-01-02T12:51:28.731Z,84.53
2023-01-02T12:54:19.623Z,84.85
2023-01-02T12:57:07.614Z,84.09
2023-01-02T12:59:52.523Z,84.13
2023-01-02T13:02:37.168Z,83.67
2023-01-02T13:05:32.460Z,83.90
2023-01-02T13:08:16.296Z,83.94
2023-01-02T13:10:43.459Z,84.08
2023-01-02T13:13:16.252Z,84.04
2023-01-02T13:15:56.957Z,84.10
2023-01-02T13:18:59.776Z,83.25
2023-01-02T13:21:41.680Z,84.30
2023-01-02T13:24:16.693Z,84.77
2023-01-02T13:26:45.930Z,85.73
2023-01-02T13:29:28.336Z,85.18
2023-01-02T13:31:57.682Z,86.30
2023-01-02T13:34:29.876Z,85.67
2023-01-02T13:37:28.752Z,86.18
2023-01-02T13:40:02.638Z,86.28
2023-01-02T13:42:54.209Z,86.87
2023-01-02T13:45:31.242Z,85.59
2023-01-02T13:48:04.546Z,84.57
2023-01-02T13:50:36.945Z,84.62
2023-01-02T13:53:09.621Z,86.23
2023-01-02T13:55:42.178Z,86.39
2023-01-02T13:58:25.027Z,87.40
2023-01-02T14:00:56.804Z,87.58
2023-01-02T14:10:44.176Z,87.88
2023-01-02T14:13:18.647Z,88.67
2023-01-02T14:16:27.282Z,88.76
2023-01-02T14:19:12.385Z,88.03
2023-01-02T14:21:55.334Z,88.46
2023-01-02T14:24:43.876Z,88.58
2023-01-02T14:27:16.049Z,89.40
2023-01-02T14:29:53.424Z,89.64
2023-01-02T14:32:43.029Z,92.21
2023-01-02T14:35:15.261Z,91.69
2023-01-02T14:37:54.565Z,92.26
2023-01-02T14:40:24.764Z,91.17
2023-01-02T14:43:32.524Z,91.20
2023-01-02T14:46:12.203Z,90.35
2023-01-02T14:48:51.073Z,89.88
2023-01-02T14:51:24.727Z,90.94
2023-01-02T14:53:58.174Z,91.13
2023-01-02T14:56:33.947Z,92.33
2023-01-02T14:59:02.837Z,91.80
2023-01-02T15:01:42.122Z,92.69
2023-01-02T15:04:41.204Z,94.20
2023-01-02T15:07:28.208Z,95.31
2023-01-02T15:10:04.986Z,95.55
2023-01-02T15:12:52.495Z,95.53
2023-01-02T15:15:31.499Z,95.45
2023-01-02T15:18:04.293Z,95.19
2023-01-02T15:20:34.174Z,95.90
2023-01-02T15:23:01.333Z,95.69
2023-01-02T15:25:36.210Z,95.78
2023-01-02T15:28:03.087Z,95.21
2023-01-02T15:30:40.118Z,95.07
2023-01-02T15:33:28.404Z,95.05
2023-01-02T15:36:03.736Z,95.22
2023-01-02T15:38:31.016Z,95.89
2023-01-02T15:41:02.648Z,95.35
2023-01-02T15:43:51.130Z,94.92
2023-01-02T15:50:25.185Z,95.40
2023-01-02T15:53:01.222Z,95.29
2023-01-02T15:56:01.153Z,95.18
2023-01-02T16:02:51.943Z,96.03
2023-01-02T16:12:36.415Z,96.76
2023-01-02T16:22:16.519Z,96.48
2023-01-02T16:25:10.489Z,96.39
2023-01-02T16:27:59.667Z,96.67
2023-01-02T16:30:50.777Z,96.40
2023-01-02T16:33:20.319Z,97.12
2023-01-02T16:36:00.994Z,97.32
2023-01-02T16:38:44.270Z,97.73
2023-01-02T16:41:35.300Z,97.72
2023-01-02T16:44:03.188Z,97.46
2023-01-02T16:46:34.207Z,98.05
2023-01-02T16:49:05.246Z,98.59
2023-01-02T16:57:55.967Z,97.90
2023-01-02T17:07:22.098Z,98.86
2023-01-02T17:09:49.432Z,98.60
2023-01-02T17:12:18.547Z,98.98
2023-01-02T17:14:47.737Z,98.97
2023-01-02T17:17:14.361Z,99.20
2023-01-02T17:19:41.526Z,100.00
2023-01-02T17:22:08.121Z,100.00
2023-01-02T17:24:34.699Z,100.00
2023-01-02T17:27:01.299Z,100.00
2023-01-02T17:29:31.307Z,100.00
2023-01-02T17:32:00.498Z,100.00
2023-01-02T17:34:27.155Z,99.68
2023-01-02T17:36:53.761Z,99.61
2023-01-02T17:39:20.327Z,99.36
2023-01-02T17:41:51.908Z,99.33
2023-01-02T17:44:19.349Z,99.27
2023-01-02T17:47:15.823Z,99.03
2023-01-02T17:49:35.011Z,99.06
2023-01-02T17:52:03.714Z,99.26
2023-01-02T17:54:30.292Z,98.94
2023-01-02T17:56:57.597Z,99.13
2023-01-02T17:59:27.271Z,98.64
2023-01-02T18:01:59.551Z,98.79
2023-01-02T18:04:26.207Z,98.68
2023-01-02T18:06:52.813Z,98.20
2023-01-02T18:09:19.563Z,97.83
2023-01-02T18:11:46.117Z,97.73
2023-01-02T18:14:31.936Z,97.84
2023-01-02T18:17:10.054Z,97.58
2023-01-02T18:19:39.058Z,97.04
2023-01-02T18:22:28.844Z,96.96
2023-01-02T18:24:55.877Z,96.65
2023-01-02T18:27:32.894Z,97.20
2023-01-02T18:30:09.794Z,97.04
2023-01-02T18:32:41.652Z,97.02
2023-01-02T18:38:24.355Z,97.24
2023-01-02T18:40:53.163Z,97.68
2023-01-02T18:43:37.791Z,97.57
2023-01-02T18:46:23.194Z,97.85
2023-01-02T18:48:49.829Z,98.14
2023-01-02T18:51:21.847Z,98.44
2023-01-02T18:53:53.002Z,98.53
2023-01-02T18:56:58.369Z,98.46
2023-01-02T18:59:40.382Z,98.23
2023-01-02T19:04:26.624Z,98.13
2023-01-02T19:09:35.932Z,98.46
2023-01-02T19:12:41.614Z,98.43
2023-01-02T19:15:42.301Z,99.04
2023-01-02T19:18:16.919Z,99.01
2023-01-02T19:20:52.814Z,99.00
2023-01-02T19:23:32.172Z,98.76
2023-01-02T19:26:23.922Z,98.68
2023-01-02T19:29:10.777Z,98.90
2023-01-02T19:32:13.063Z,98.85
2023-01-02T19:34:44.862Z,98.91
2023-01-02T19:37:13.729Z,98.82
2023-01-02T19:39:56.191Z,99.07
2023-01-02T19:42:25.277Z,98.88
2023-01-02T19:45:18.077Z,98.91
2023-01-02T19:47:49.698Z,99.07
2023-01-02T19:50:19.604Z,99.24
2023-01-02T19:52:48.899Z,99.35
2023-01-02T19:55:17.904Z,99.31
2023-01-02T19:57:45.226Z,99.55
2023-01-02T20:00:13.830Z,99.30
2023-01-02T20:02:42.523Z,99.40
2023-01-02T20:05:14.731Z,99.89
2023-01-02T20:07:46.731Z,99.94
2023-01-02T20:10:13.752Z,100.00
2023-01-02T20:12:43.072Z,100.00
2023-01-02T20:15:15.150Z,100.00
2023-01-02T20:17:42.327Z,100.00
2023-01-02T20:20:15.973Z,100.00
2023-01-02T20:22:45.227Z,99.65
2023-01-02T20:25:15.461Z,99.78
2023-01-02T20:27:44.662Z,99.87
2023-01-02T20:30:12.271Z,99.69
2023-01-02T20:32:38.950Z,99.49
2023-01-02T20:35:06.318Z,99.21
2023-01-02T20:37:34.173Z,99.13
2023-01-02T20:40:00.981Z,98.88
2023-01-02T20:42:27.629Z,98.98
2023-01-02T20:44:58.960Z,99.03
2023-01-02T20:47:25.561Z,99.16
2023-01-02T20:49:52.148Z,99.60
2023-01-02T20:52:19.263Z,98.99
2023-01-02T20:54:45.813Z,99.36
2023-01-02T20:57:12.351Z,99.39
2023-01-02T20:59:39.438Z,99.88
2023-01-02T21:02:06.258Z,99.77
2023-01-02T21:04:36.846Z,100.00
2023-01-02T21:07:08.837Z,100.00
2023-01-02T21:09:42.703Z,100.00
2023-01-02T21:12:29.271Z,100.00
2023-01-02T21:14:55.961Z,100.00
2023-01-02T21:17:22.698Z,100.00
2023-01-02T21:19:49.332Z,100.00
2023-01-02T21:22:19.378Z,100.00
2023-01-02T21:24:46.007Z,100.00
2023-01-02T21:27:13.362Z,100.00
2023-01-02T21:29:40.324Z,100.00
2023-01-02T21:32:09.375Z,100.00
2023-01-02T21:34:35.968Z,100.00
2023-01-02T21:37:02.613Z,100.00
2023-01-02T21:39:36.027Z,100.00
2023-01-02T21:42:17.863Z,100.00
2023-01-02T21:44:48.483Z,100.00
2023-01-02T21:47:18.098Z,100.00
2023-01-02T21:49:59.466Z,100.00
2023-01-02T21:52:26.185Z,100.00
2023-01-02T21:54:53.132Z,100.00
2023-01-02T21:57:38.603Z,100.00
2023-01-02T22:00:09.980Z,100.00
2023-01-02T22:02:38.838Z,100.00
2023-01-02T22:05:06.304Z,99.77
2023-01-02T22:07:39.308Z,99.63
2023-01-02T22:10:13.753Z,99.59
2023-01-02T22:12:43.592Z,99.49
2023-01-02T22:15:11.866Z,99.21
2023-01-02T22:17:40.816Z,98.82
2023-01-02T22:20:08.325Z,99.10
2023-01-02T22:22:34.963Z,98.63
2023-01-02T22:25:02.185Z,98.67
2023-01-02T22:27:29.205Z,98.63
2023-01-02T22:32:49.907Z,98.75
2023-01-02T22:35:16.791Z,98.25
2023-01-02T22:37:43.398Z,98.15
2023-01-02T22:44:54.017Z,98.45
2023-01-02T22:47:27.381Z,99.02
2023-01-02T22:49:56.140Z,99.15
2023-01-02T22:52:26.336Z,99.05
2023-01-02T22:54:55.590Z,99.33
2023-01-02T22:57:24.275Z,99.44
2023-01-02T22:59:53.434Z,98.93
2023-01-02T23:02:21.729Z,98.89
2023-01-02T23:04:51.021Z,98.77
2023-01-02T23:07:24.186Z,98.50
2023-01-02T23:09:51.251Z,98.28
2023-01-02T23:12:20.942Z,98.10
2023-01-02T23:14:50.085Z,98.31
2023-01-02T23:17:35.167Z,98.84
2023-01-02T23:20:22.728Z,99.13
2023-01-02T23:22:51.113Z,99.25
2023-01-02T23:25:20.053Z,97.94
2023-01-02T23:27:49.796Z,97.51
2023-01-02T23:30:19.223Z,97.25
2023-01-02T23:32:48.180Z,96.92
2023-01-02T23:35:15.000Z,96.60
2023-01-02T23:37:43.784Z,96.49
2023-01-02T23:40:13.906Z,96.18
2023-01-02T23:42:44.043Z,95.59
2023-01-02T23:45:10.958Z,95.47
2023-01-02T23:47:51.767Z,95.65
2023-01-02T23:50:20.586Z,95.80
2023-01-02T23:52:49.531Z,96.15
2023-01-02T23:55:18.534Z,97.05
2023-01-02T23:57:45.181Z,96.72
